sensor_id;sensor_type;location;lat;lon;timestamp;pressure;altitude;pressure_sealevel;temperature;humidity
60820;BME280;46641;48.904;9.126;2023-03-04T00:04:16;99153.06;;;10.28;55.83
60820;BME280;46641;48.904;9.126;2023-03-04T00:09:07;99155.91;;;10.25;55.59
60820;BME280;46641;48.904;9.126;2023-03-04T00:13:57;99153.41;;;10.23;55.80
60820;BME280;46641;48.904;9.126;2023-03-04T00:18:47;99149.41;;;10.19;55.74
60820;BME280;46641;48.904;9.126;2023-03-04T00:23:38;99153.09;;;10.17;55.80
60820;BME280;46641;48.904;9.126;2023-03-04T00:28:30;99155.97;;;10.14;55.84
60820;BME280;46641;48.904;9.126;2023-03-04T00:33:20;99151.84;;;10.11;55.84
60820;BME280;46641;48.904;9.126;2023-03-04T00:38:10;99154.81;;;10.06;55.84
60820;BME280;46641;48.904;9.126;2023-03-04T00:43:01;99161.03;;;10.05;56.27
60820;BME280;46641;48.904;9.126;2023-03-04T00:47:51;99157.84;;;10.02;56.12
60820;BME280;46641;48.904;9.126;2023-03-04T00:52:42;99156.19;;;10.01;56.16
60820;BME280;46641;48.904;9.126;2023-03-04T00:57:32;99146.00;;;9.98;55.95
60820;BME280;46641;48.904;9.126;2023-03-04T01:02:22;99149.69;;;9.95;55.92
60820;BME280;46641;48.904;9.126;2023-03-04T01:07:13;99142.91;;;9.93;55.92
60820;BME280;46641;48.904;9.126;2023-03-04T01:12:03;99142.19;;;9.91;56.21
60820;BME280;46641;48.904;9.126;2023-03-04T01:16:53;99141.78;;;9.86;56.05
60820;BME280;46641;48.904;9.126;2023-03-04T01:21:44;99136.78;;;9.82;56.16
60820;BME280;46641;48.904;9.126;2023-03-04T01:26:34;99139.53;;;9.81;56.35
60820;BME280;46641;48.904;9.126;2023-03-04T01:31:24;99134.44;;;9.79;56.37
60820;BME280;46641;48.904;9.126;2023-03-04T01:36:15;99136.47;;;9.76;56.46
60820;BME280;46641;48.904;9.126;2023-03-04T01:41:05;99130.66;;;9.72;56.58
60820;BME280;46641;48.904;9.126;2023-03-04T01:45:57;99129.97;;;9.70;56.39
60820;BME280;46641;48.904;9.126;2023-03-04T01:50:48;99127.59;;;9.67;56.27
60820;BME280;46641;48.904;9.126;2023-03-04T01:55:38;99134.75;;;9.65;56.46
60820;BME280;46641;48.904;9.126;2023-03-04T02:00:31;99128.09;;;9.61;56.53
60820;BME280;46641;48.904;9.126;2023-03-04T02:05:22;99129.06;;;9.60;56.36
60820;BME280;46641;48.904;9.126;2023-03-04T02:10:13;99125.88;;;9.56;56.71
60820;BME280;46641;48.904;9.126;2023-03-04T02:15:04;99122.69;;;9.53;56.59
60820;BME280;46641;48.904;9.126;2023-03-04T02:20:14;99126.47;;;9.49;56.54
60820;BME280;46641;48.904;9.126;2023-03-04T02:25:10;99118.94;;;9.46;56.93
60820;BME280;46641;48.904;9.126;2023-03-04T02:30:02;99119.03;;;9.44;56.82
60820;BME280;46641;48.904;9.126;2023-03-04T02:34:53;99120.94;;;9.42;56.55
60820;BME280;46641;48.904;9.126;2023-03-04T02:39:45;99122.84;;;9.40;56.73
60820;BME280;46641;48.904;9.126;2023-03-04T02:44:38;99120.59;;;9.35;56.96
60820;BME280;46641;48.904;9.126;2023-03-04T02:49:30;99122.38;;;9.35;57.10
60820;BME280;46641;48.904;9.126;2023-03-04T02:54:23;99129.66;;;9.31;57.31
60820;BME280;46641;48.904;9.126;2023-03-04T02:59:13;99123.72;;;9.29;57.21
60820;BME280;46641;48.904;9.126;2023-03-04T03:04:03;99117.06;;;9.25;57.07
60820;BME280;46641;48.904;9.126;2023-03-04T03:08:54;99124.22;;;9.23;57.37
60820;BME280;46641;48.904;9.126;2023-03-04T03:13:44;99128.72;;;9.21;57.50
60820;BME280;46641;48.904;9.126;2023-03-04T03:18:34;99121.97;;;9.19;57.42
60820;BME280;46641;48.904;9.126;2023-03-04T03:23:24;99123.75;;;9.18;57.25
60820;BME280;46641;48.904;9.126;2023-03-04T03:28:15;99116.16;;;9.15;57.32
60820;BME280;46641;48.904;9.126;2023-03-04T03:33:05;99125.78;;;9.15;57.28
60820;BME280;46641;48.904;9.126;2023-03-04T03:37:55;99123.28;;;9.13;57.62
60820;BME280;46641;48.904;9.126;2023-03-04T03:42:46;99121.63;;;9.12;57.73
60820;BME280;46641;48.904;9.126;2023-03-04T03:47:36;99120.22;;;9.08;57.76
60820;BME280;46641;48.904;9.126;2023-03-04T03:52:26;99123.81;;;9.07;57.11
60820;BME280;46641;48.904;9.126;2023-03-04T03:57:17;99122.50;;;9.01;57.63
60820;BME280;46641;48.904;9.126;2023-03-04T04:02:07;99130.44;;;9.00;57.40
60820;BME280;46641;48.904;9.126;2023-03-04T04:06:57;99120.25;;;8.97;57.80
60820;BME280;46641;48.904;9.126;2023-03-04T04:11:48;99119.78;;;8.92;57.77
60820;BME280;46641;48.904;9.126;2023-03-04T04:16:38;99133.09;;;8.88;57.79
60820;BME280;46641;48.904;9.126;2023-03-04T04:21:28;99127.97;;;8.87;58.08
60820;BME280;46641;48.904;9.126;2023-03-04T04:26:19;99131.69;;;8.84;57.71
60820;BME280;46641;48.904;9.126;2023-03-04T04:31:09;99133.47;;;8.84;57.68
60820;BME280;46641;48.904;9.126;2023-03-04T04:35:59;99136.19;;;8.82;57.84
60820;BME280;46641;48.904;9.126;2023-03-04T04:40:50;99136.19;;;8.82;58.06
60820;BME280;46641;48.904;9.126;2023-03-04T04:45:40;99129.41;;;8.80;58.28
60820;BME280;46641;48.904;9.126;2023-03-04T04:50:31;99122.66;;;8.77;58.19
60820;BME280;46641;48.904;9.126;2023-03-04T04:55:21;99130.59;;;8.76;58.06
60820;BME280;46641;48.904;9.126;2023-03-04T05:00:12;99134.41;;;8.72;58.35
60820;BME280;46641;48.904;9.126;2023-03-04T05:05:04;99145.69;;;8.72;58.05
60820;BME280;46641;48.904;9.126;2023-03-04T05:09:54;99144.28;;;8.68;58.43
60820;BME280;46641;48.904;9.126;2023-03-04T05:14:44;99153.03;;;8.67;58.12
60820;BME280;46641;48.904;9.126;2023-03-04T05:19:35;99152.44;;;8.63;58.28
60820;BME280;46641;48.904;9.126;2023-03-04T05:24:25;99160.41;;;8.62;58.46
60820;BME280;46641;48.904;9.126;2023-03-04T05:29:15;99163.25;;;8.59;58.37
60820;BME280;46641;48.904;9.126;2023-03-04T05:34:05;99161.69;;;8.56;58.59
60820;BME280;46641;48.904;9.126;2023-03-04T05:38:56;99160.03;;;8.55;58.32
60820;BME280;46641;48.904;9.126;2023-03-04T05:43:46;99156.72;;;8.53;58.65
60820;BME280;46641;48.904;9.126;2023-03-04T05:48:36;99159.56;;;8.50;58.76
60820;BME280;46641;48.904;9.126;2023-03-04T05:53:27;99161.34;;;8.50;58.35
60820;BME280;46641;48.904;9.126;2023-03-04T05:58:18;99160.63;;;8.48;58.65
60820;BME280;46641;48.904;9.126;2023-03-04T06:03:20;99174.63;;;8.47;58.10
60820;BME280;46641;48.904;9.126;2023-03-04T06:08:11;99167.03;;;8.43;58.70
60820;BME280;46641;48.904;9.126;2023-03-04T06:13:02;99178.41;;;8.42;58.91
60820;BME280;46641;48.904;9.126;2023-03-04T06:17:52;99183.88;;;8.39;58.63
60820;BME280;46641;48.904;9.126;2023-03-04T06:22:43;99182.28;;;8.37;58.67
60820;BME280;46641;48.904;9.126;2023-03-04T06:27:33;99192.13;;;8.33;59.27
60820;BME280;46641;48.904;9.126;2023-03-04T06:32:23;99192.13;;;8.33;58.75
60820;BME280;46641;48.904;9.126;2023-03-04T06:37:14;99206.13;;;8.32;59.06
60820;BME280;46641;48.904;9.126;2023-03-04T06:42:04;99202.78;;;8.30;58.75
60820;BME280;46641;48.904;9.126;2023-03-04T06:46:55;99206.44;;;8.28;59.03
60820;BME280;46641;48.904;9.126;2023-03-04T06:51:45;99211.78;;;8.26;59.26
60820;BME280;46641;48.904;9.126;2023-03-04T06:56:35;99218.66;;;8.27;59.02
60820;BME280;46641;48.904;9.126;2023-03-04T07:01:27;99220.44;;;8.27;58.73
60820;BME280;46641;48.904;9.126;2023-03-04T07:06:21;99224.00;;;8.26;58.93
60820;BME280;46641;48.904;9.126;2023-03-04T07:11:11;99226.59;;;8.26;58.96
60820;BME280;46641;48.904;9.126;2023-03-04T07:16:03;99232.88;;;8.23;58.73
60820;BME280;46641;48.904;9.126;2023-03-04T07:20:53;99232.75;;;8.25;58.83
60820;BME280;46641;48.904;9.126;2023-03-04T07:25:44;99241.63;;;8.22;58.81
60820;BME280;46641;48.904;9.126;2023-03-04T07:30:34;99243.31;;;8.23;59.32
60820;BME280;46641;48.904;9.126;2023-03-04T07:35:24;99252.78;;;8.24;59.56
60820;BME280;46641;48.904;9.126;2023-03-04T07:40:15;99258.13;;;8.23;59.69
60820;BME280;46641;48.904;9.126;2023-03-04T07:45:05;99252.19;;;8.20;59.24
60820;BME280;46641;48.904;9.126;2023-03-04T07:49:56;99261.66;;;8.22;59.60
60820;BME280;46641;48.904;9.126;2023-03-04T07:54:47;99266.88;;;8.22;59.33
60820;BME280;46641;48.904;9.126;2023-03-04T07:59:37;99271.03;;;8.24;59.02
60820;BME280;46641;48.904;9.126;2023-03-04T08:04:28;99276.25;;;8.24;59.56
60820;BME280;46641;48.904;9.126;2023-03-04T08:09:18;99275.28;;;8.25;58.99
60820;BME280;46641;48.904;9.126;2023-03-04T08:14:10;99280.50;;;8.14;54.94
60820;BME280;46641;48.904;9.126;2023-03-04T08:19:02;99281.38;;;8.02;54.68
60820;BME280;46641;48.904;9.126;2023-03-04T08:23:53;99284.78;;;7.91;54.29
60820;BME280;46641;48.904;9.126;2023-03-04T08:28:44;99287.38;;;7.30;54.94
60820;BME280;46641;48.904;9.126;2023-03-04T08:33:34;99284.47;;;7.59;55.36
60820;BME280;46641;48.904;9.126;2023-03-04T08:38:25;99294.03;;;7.71;55.60
60820;BME280;46641;48.904;9.126;2023-03-04T08:43:15;99286.38;;;7.81;55.78
60820;BME280;46641;48.904;9.126;2023-03-04T08:48:05;99288.44;;;7.88;56.02
60820;BME280;46641;48.904;9.126;2023-03-04T08:52:57;99284.44;;;7.95;55.87
60820;BME280;46641;48.904;9.126;2023-03-04T08:57:48;99282.34;;;8.01;55.96
60820;BME280;46641;48.904;9.126;2023-03-04T09:02:38;99282.94;;;8.04;56.55
60820;BME280;46641;48.904;9.126;2023-03-04T09:07:28;99284.38;;;8.08;56.08
60820;BME280;46641;48.904;9.126;2023-03-04T09:12:19;99296.34;;;8.11;56.79
60820;BME280;46641;48.904;9.126;2023-03-04T09:17:09;99291.88;;;8.13;56.93
60820;BME280;46641;48.904;9.126;2023-03-04T09:22:00;99297.69;;;8.16;56.78
60820;BME280;46641;48.904;9.126;2023-03-04T09:26:52;99285.34;;;8.18;56.71
60820;BME280;46641;48.904;9.126;2023-03-04T09:31:43;99289.50;;;8.21;57.17
60820;BME280;46641;48.904;9.126;2023-03-04T09:36:33;99286.47;;;8.27;56.81
60820;BME280;46641;48.904;9.126;2023-03-04T09:41:26;99281.84;;;8.31;56.75
60820;BME280;46641;48.904;9.126;2023-03-04T09:46:35;99284.13;;;8.35;57.11
60820;BME280;46641;48.904;9.126;2023-03-04T09:56:37;99287.13;;;8.42;57.20
60820;BME280;46641;48.904;9.126;2023-03-04T10:01:47;99285.34;;;8.42;56.80
60820;BME280;46641;48.904;9.126;2023-03-04T10:06:40;99280.75;;;8.46;57.60
60820;BME280;46641;48.904;9.126;2023-03-04T10:11:45;99285.00;;;8.47;57.59
60820;BME280;46641;48.904;9.126;2023-03-04T10:21:54;99284.91;;;8.60;56.88
60820;BME280;46641;48.904;9.126;2023-03-04T10:26:48;99283.72;;;8.64;57.62
60820;BME280;46641;48.904;9.126;2023-03-04T10:31:40;99268.56;;;8.69;57.41
60820;BME280;46641;48.904;9.126;2023-03-04T10:36:42;99266.56;;;8.73;56.47
60820;BME280;46641;48.904;9.126;2023-03-04T10:41:33;99263.56;;;8.77;56.70
60820;BME280;46641;48.904;9.126;2023-03-04T10:46:24;99263.25;;;8.82;57.14
60820;BME280;46641;48.904;9.126;2023-03-04T10:51:20;99264.06;;;8.82;56.36
60820;BME280;46641;48.904;9.126;2023-03-04T10:56:37;99261.22;;;8.85;56.62
60820;BME280;46641;48.904;9.126;2023-03-04T11:01:27;99253.88;;;8.91;57.04
60820;BME280;46641;48.904;9.126;2023-03-04T11:06:21;99251.72;;;8.96;56.66
60820;BME280;46641;48.904;9.126;2023-03-04T11:11:29;99241.88;;;8.99;56.60
60820;BME280;46641;48.904;9.126;2023-03-04T11:16:26;99238.19;;;9.02;56.98
60820;BME280;46641;48.904;9.126;2023-03-04T11:21:19;99238.78;;;9.05;56.59
60820;BME280;46641;48.904;9.126;2023-03-04T11:26:16;99232.13;;;9.12;56.31
60820;BME280;46641;48.904;9.126;2023-03-04T11:31:19;99241.50;;;9.15;56.60
60820;BME280;46641;48.904;9.126;2023-03-04T11:41:35;99231.56;;;9.20;56.87
60820;BME280;46641;48.904;9.126;2023-03-04T11:56:43;99220.41;;;8.84;55.65
60820;BME280;46641;48.904;9.126;2023-03-04T12:22:43;99186.22;;;9.10;53.04
60820;BME280;46641;48.904;9.126;2023-03-04T12:43:04;99164.34;;;9.22;53.96
60820;BME280;46641;48.904;9.126;2023-03-04T12:53:29;99150.34;;;9.23;54.22
60820;BME280;46641;48.904;9.126;2023-03-04T12:58:25;99150.09;;;9.26;54.56
60820;BME280;46641;48.904;9.126;2023-03-04T13:03:38;99134.16;;;9.29;54.06
60820;BME280;46641;48.904;9.126;2023-03-04T13:09:03;99144.59;;;9.29;53.89
60820;BME280;46641;48.904;9.126;2023-03-04T13:18:58;99134.63;;;9.34;55.03
60820;BME280;46641;48.904;9.126;2023-03-04T13:23:50;99136.16;;;9.37;54.45
60820;BME280;46641;48.904;9.126;2023-03-04T13:28:41;99136.41;;;9.34;54.91
60820;BME280;46641;48.904;9.126;2023-03-04T13:43:27;99132.47;;;9.40;54.41
60820;BME280;46641;48.904;9.126;2023-03-04T13:48:27;99135.66;;;9.43;54.29
60820;BME280;46641;48.904;9.126;2023-03-04T13:53:29;99133.88;;;9.44;54.71
60820;BME280;46641;48.904;9.126;2023-03-04T13:58:23;99128.41;;;9.47;54.90
60820;BME280;46641;48.904;9.126;2023-03-04T14:03:20;99131.03;;;9.47;54.62
60820;BME280;46641;48.904;9.126;2023-03-04T14:08:18;99135.53;;;9.45;54.66
60820;BME280;46641;48.904;9.126;2023-03-04T14:13:10;99124.84;;;9.48;55.23
60820;BME280;46641;48.904;9.126;2023-03-04T14:22:53;99115.09;;;9.50;55.35
60820;BME280;46641;48.904;9.126;2023-03-04T14:27:45;99110.44;;;9.53;54.82
60820;BME280;46641;48.904;9.126;2023-03-04T14:32:35;99104.50;;;9.51;55.19
60820;BME280;46641;48.904;9.126;2023-03-04T14:37:32;99104.66;;;9.50;55.15
60820;BME280;46641;48.904;9.126;2023-03-04T14:42:36;99097.50;;;9.52;55.27
60820;BME280;46641;48.904;9.126;2023-03-04T14:47:36;99094.06;;;9.51;55.35
60820;BME280;46641;48.904;9.126;2023-03-04T14:52:38;99089.78;;;9.50;55.21
60820;BME280;46641;48.904;9.126;2023-03-04T14:57:32;99090.50;;;9.52;55.10
60820;BME280;46641;48.904;9.126;2023-03-04T15:02:29;99082.78;;;9.51;54.85
60820;BME280;46641;48.904;9.126;2023-03-04T15:07:31;99079.34;;;9.50;54.58
60820;BME280;46641;48.904;9.126;2023-03-04T15:12:25;99080.16;;;9.51;55.37
60820;BME280;46641;48.904;9.126;2023-03-04T15:17:42;99077.81;;;9.48;55.26
60820;BME280;46641;48.904;9.126;2023-03-04T15:22:36;99088.97;;;9.50;55.84
60820;BME280;46641;48.904;9.126;2023-03-04T15:27:45;99088.16;;;9.49;55.96
60820;BME280;46641;48.904;9.126;2023-03-04T15:32:35;99080.88;;;9.53;55.62
60820;BME280;46641;48.904;9.126;2023-03-04T15:37:28;99081.00;;;9.51;55.78
60820;BME280;46641;48.904;9.126;2023-03-04T15:42:18;99082.53;;;9.54;56.14
60820;BME280;46641;48.904;9.126;2023-03-04T15:47:12;99070.44;;;9.53;55.30
60820;BME280;46641;48.904;9.126;2023-03-04T15:52:03;99068.75;;;9.52;55.47
60820;BME280;46641;48.904;9.126;2023-03-04T15:56:54;99067.94;;;9.51;55.79
60820;BME280;46641;48.904;9.126;2023-03-04T16:01:47;99073.97;;;9.52;56.12
60820;BME280;46641;48.904;9.126;2023-03-04T16:06:37;99072.31;;;9.51;56.01
60820;BME280;46641;48.904;9.126;2023-03-04T16:11:31;99078.25;;;9.53;56.03
60820;BME280;46641;48.904;9.126;2023-03-04T16:16:25;99077.31;;;9.54;55.99
60820;BME280;46641;48.904;9.126;2023-03-04T16:21:19;99078.25;;;9.53;55.98
60820;BME280;46641;48.904;9.126;2023-03-04T16:26:14;99076.00;;;9.48;56.06
60820;BME280;46641;48.904;9.126;2023-03-04T16:31:05;99075.19;;;9.48;56.50
60820;BME280;46641;48.904;9.126;2023-03-04T16:35:55;99070.78;;;9.48;56.81
60820;BME280;46641;48.904;9.126;2023-03-04T16:40:46;99066.53;;;9.47;56.71
60820;BME280;46641;48.904;9.126;2023-03-04T16:45:37;99066.53;;;9.47;56.47
60820;BME280;46641;48.904;9.126;2023-03-04T16:50:27;99061.16;;;9.49;56.48
60820;BME280;46641;48.904;9.126;2023-03-04T16:55:24;99073.28;;;9.50;56.60
60820;BME280;46641;48.904;9.126;2023-03-04T17:00:16;99067.34;;;9.48;56.73
60820;BME280;46641;48.904;9.126;2023-03-04T17:05:14;99068.44;;;9.45;57.13
60820;BME280;46641;48.904;9.126;2023-03-04T17:10:06;99071.78;;;8.72;54.72
60820;BME280;46641;48.904;9.126;2023-03-04T17:14:56;99076.28;;;9.13;54.80
60820;BME280;46641;48.904;9.126;2023-03-04T17:19:47;99072.19;;;9.31;54.81
60820;BME280;46641;48.904;9.126;2023-03-04T17:24:37;99070.47;;;9.42;54.61
60820;BME280;46641;48.904;9.126;2023-03-04T17:29:27;99072.47;;;8.85;54.62
60820;BME280;46641;48.904;9.126;2023-03-04T17:34:18;99069.97;;;9.16;54.54
60820;BME280;46641;48.904;9.126;2023-03-04T17:39:09;99078.38;;;9.30;54.28
60820;BME280;46641;48.904;9.126;2023-03-04T17:43:59;99085.63;;;8.83;54.20
60820;BME280;46641;48.904;9.126;2023-03-04T17:48:52;99088.41;;;9.14;54.65
60820;BME280;46641;48.904;9.126;2023-03-04T17:53:45;99084.81;;;9.26;54.75
60820;BME280;46641;48.904;9.126;2023-03-04T17:58:35;99080.00;;;9.31;54.34
60820;BME280;46641;48.904;9.126;2023-03-04T18:03:26;99086.63;;;9.35;54.47
60820;BME280;46641;48.904;9.126;2023-03-04T18:08:16;99085.72;;;9.36;54.67
60820;BME280;46641;48.904;9.126;2023-03-04T18:13:06;99072.66;;;9.36;55.05
60820;BME280;46641;48.904;9.126;2023-03-04T18:17:57;99069.22;;;9.36;55.45
60820;BME280;46641;48.904;9.126;2023-03-04T18:22:48;99058.03;;;9.34;55.25
60820;BME280;46641;48.904;9.126;2023-03-04T18:27:39;99058.03;;;9.34;55.62
60820;BME280;46641;48.904;9.126;2023-03-04T18:32:29;99045.69;;;9.36;55.63
60820;BME280;46641;48.904;9.126;2023-03-04T18:37:20;99063.03;;;9.37;55.33
60820;BME280;46641;48.904;9.126;2023-03-04T18:42:10;99069.06;;;9.38;55.68
60820;BME280;46641;48.904;9.126;2023-03-04T18:47:00;99070.72;;;9.39;55.46
60820;BME280;46641;48.904;9.126;2023-03-04T18:51:51;99064.56;;;9.40;55.55
60820;BME280;46641;48.904;9.126;2023-03-04T18:57:11;99062.19;;;9.36;55.42
60820;BME280;46641;48.904;9.126;2023-03-04T19:02:05;99057.66;;;9.39;55.57
60820;BME280;46641;48.904;9.126;2023-03-04T19:06:59;99054.09;;;9.40;55.34
60820;BME280;46641;48.904;9.126;2023-03-04T19:11:49;99049.81;;;9.39;55.91
60820;BME280;46641;48.904;9.126;2023-03-04T19:16:39;99049.81;;;9.39;55.69
60820;BME280;46641;48.904;9.126;2023-03-04T19:21:30;99043.78;;;9.38;55.98
60820;BME280;46641;48.904;9.126;2023-03-04T19:26:21;99039.38;;;9.39;55.91
60820;BME280;46641;48.904;9.126;2023-03-04T19:31:11;99043.66;;;9.40;56.02
60820;BME280;46641;48.904;9.126;2023-03-04T19:36:03;99037.59;;;9.39;55.75
60820;BME280;46641;48.904;9.126;2023-03-04T19:40:54;99037.59;;;9.39;56.19
60820;BME280;46641;48.904;9.126;2023-03-04T19:45:54;99035.94;;;9.38;56.06
60820;BME280;46641;48.904;9.126;2023-03-04T19:50:45;99040.19;;;9.39;56.17
60820;BME280;46641;48.904;9.126;2023-03-04T19:55:36;99033.31;;;9.38;56.31
60820;BME280;46641;48.904;9.126;2023-03-04T20:00:26;99034.97;;;9.39;56.32
60820;BME280;46641;48.904;9.126;2023-03-04T20:05:17;99027.28;;;9.38;56.46
60820;BME280;46641;48.904;9.126;2023-03-04T20:10:08;99032.50;;;9.38;56.29
60820;BME280;46641;48.904;9.126;2023-03-04T20:14:58;99027.28;;;9.38;56.38
60820;BME280;46641;48.904;9.126;2023-03-04T20:19:48;99016.81;;;9.38;56.87
60820;BME280;46641;48.904;9.126;2023-03-04T20:24:39;99021.78;;;9.41;56.65
60820;BME280;46641;48.904;9.126;2023-03-04T20:29:29;99027.03;;;9.41;56.58
60820;BME280;46641;48.904;9.126;2023-03-04T20:34:20;99019.28;;;9.39;56.51
60820;BME280;46641;48.904;9.126;2023-03-04T20:39:10;99004.59;;;9.38;56.69
60820;BME280;46641;48.904;9.126;2023-03-04T20:44:00;99013.25;;;9.39;56.01
60820;BME280;46641;48.904;9.126;2023-03-04T20:48:51;99012.41;;;9.38;56.42
60820;BME280;46641;48.904;9.126;2023-03-04T20:53:42;99015.75;;;9.40;56.22
60820;BME280;46641;48.904;9.126;2023-03-04T20:58:34;99020.25;;;9.38;56.86
60820;BME280;46641;48.904;9.126;2023-03-04T21:03:24;99019.28;;;9.39;56.21
60820;BME280;46641;48.904;9.126;2023-03-04T21:08:14;99016.81;;;9.38;56.83
60820;BME280;46641;48.904;9.126;2023-03-04T21:13:04;99009.81;;;9.38;56.64
60820;BME280;46641;48.904;9.126;2023-03-04T21:17:55;99012.41;;;9.38;56.53
60820;BME280;46641;48.904;9.126;2023-03-04T21:22:45;99008.03;;;9.39;56.97
60820;BME280;46641;48.904;9.126;2023-03-04T21:27:35;99003.63;;;9.39;56.56
60820;BME280;46641;48.904;9.126;2023-03-04T21:32:31;98998.41;;;9.39;56.66
60820;BME280;46641;48.904;9.126;2023-03-04T21:37:22;98990.69;;;9.38;56.81
60820;BME280;46641;48.904;9.126;2023-03-04T21:42:13;98989.75;;;9.39;56.81
60820;BME280;46641;48.904;9.126;2023-03-04T21:47:03;98982.88;;;9.38;56.76
60820;BME280;46641;48.904;9.126;2023-03-04T21:51:54;98978.34;;;9.40;56.81
60820;BME280;46641;48.904;9.126;2023-03-04T21:56:44;98982.72;;;9.39;56.34
60820;BME280;46641;48.904;9.126;2023-03-04T22:01:34;98976.69;;;9.39;56.90
60820;BME280;46641;48.904;9.126;2023-03-04T22:06:25;98978.34;;;9.40;56.83
60820;BME280;46641;48.904;9.126;2023-03-04T22:11:16;98971.44;;;9.39;56.83
60820;BME280;46641;48.904;9.126;2023-03-04T22:16:07;98966.22;;;9.39;56.72
60820;BME280;46641;48.904;9.126;2023-03-04T22:21:06;98957.56;;;9.38;56.99
60820;BME280;46641;48.904;9.126;2023-03-04T22:26:02;98956.59;;;9.39;56.44
60820;BME280;46641;48.904;9.126;2023-03-04T22:30:54;98969.56;;;9.41;56.80
60820;BME280;46641;48.904;9.126;2023-03-04T22:35:45;98957.47;;;9.40;57.20
60820;BME280;46641;48.904;9.126;2023-03-04T22:40:35;98951.38;;;9.39;56.83
60820;BME280;46641;48.904;9.126;2023-03-04T22:45:28;98954.13;;;9.38;57.02
60820;BME280;46641;48.904;9.126;2023-03-04T22:50:20;98953.41;;;9.35;56.77
60820;BME280;46641;48.904;9.126;2023-03-04T22:55:11;98948.66;;;9.41;56.91
60820;BME280;46641;48.904;9.126;2023-03-04T23:00:03;98947.81;;;9.40;57.17
60820;BME280;46641;48.904;9.126;2023-03-04T23:04:54;98946.16;;;9.39;57.32
60820;BME280;46641;48.904;9.126;2023-03-04T23:09:44;98949.72;;;9.38;57.09
60820;BME280;46641;48.904;9.126;2023-03-04T23:14:36;98943.81;;;9.36;56.84
60820;BME280;46641;48.904;9.126;2023-03-04T23:19:26;98940.38;;;9.35;56.98
60820;BME280;46641;48.904;9.126;2023-03-04T23:24:16;98940.38;;;9.35;57.01
60820;BME280;46641;48.904;9.126;2023-03-04T23:29:11;98939.16;;;9.40;57.38
60820;BME280;46641;48.904;9.126;2023-03-04T23:34:02;98938.19;;;9.41;56.78
60820;BME280;46641;48.904;9.126;2023-03-04T23:38:53;98934.06;;;9.38;56.99
60820;BME280;46641;48.904;9.126;2023-03-04T23:43:45;98932.41;;;9.37;56.85
60820;BME280;46641;48.904;9.126;2023-03-04T23:48:36;98930.63;;;9.38;57.26
60820;BME280;46641;48.904;9.126;2023-03-04T23:53:27;98926.09;;;9.40;56.88
60820;BME280;46641;48.904;9.126;2023-03-04T23:58:17;98926.22;;;9.38;56.94
